ENKR/KKN METAR and TAF weather

Enter ICAO airport designator
Station Type Date Time Source
ENKR METAR 2018/01/22 19:50 UTC NOAA

ENKR 221950Z 29003KT 9999 FEW002 SCT008 M20/M22 Q1017 RMK WIND 731FT 35004KT


Station Type Date Time Source
ENKR Decoded METAR 2018/01/22 19:50 UTC NOAA

Kirkenes Lufthavn, Norway (ENKR) 69-44N 029-54E 91M
Jan 22, 2018 - 02:50 PM EST / 2018.01.22 1950 UTC
Wind: from the WNW (290 degrees) at 3 MPH (3 KT):0
Visibility: greater than 7 mile(s):0
Sky conditions: partly cloudy
Temperature: -4 F (-20 C)
Dew Point: -7 F (-22 C)
Relative Humidity: 84%
Pressure (altimeter): 30.03 in. Hg (1017 hPa)
ob: ENKR 221950Z 29003KT 9999 FEW002 SCT008 M20/M22 Q1017 RMK WIND 731FT 35004KT
cycle: 20

Station Type Date Time Source
ENKR TAF 2017/08/31 21:36 UTC NOAA

TAF TAF ENKR 312300Z 3121/0109 29005KT 9999 FEW020 SCT040


Example: see airport list